Time;durP1;ratioP1;P1;durP2;ratioP2;P2;SDS_P1;SDS_P2;PMS_P1;PMS_P2;Temp;Humidity;BMP_temperature;BMP_pressure;BME280_temperature;BME280_humidity;BME280_pressure;Samples;Min_cycle;Max_cycle;Signal;HPM_P1;HPM_P2
2021/07/30 00:01:55;;;;;;;1.57;0.83;;;;;;;;;;4541294;28;20636;-60
2021/07/30 00:04:05;;;;;;;1.60;1.07;;;;;;;;;;4524518;28;20048;-60
2021/07/30 00:06:16;;;;;;;1.37;0.73;;;;;;;;;;4541114;28;20109;-60
2021/07/30 00:08:26;;;;;;;2.83;1.00;;;;;;;;;;4542951;28;20032;-60
2021/07/30 00:10:36;;;;;;;2.73;1.10;;;;;;;;;;4540447;28;20397;-60
2021/07/30 00:12:50;;;;;;;2.17;0.90;;;;;;;;;;4543165;28;20037;-60
2021/07/30 00:15:00;;;;;;;1.63;1.00;;;;;;;;;;4543645;28;20037;-60
2021/07/30 00:17:11;;;;;;;4.17;1.30;;;;;;;;;;4542363;28;20033;-60
2021/07/30 00:19:21;;;;;;;1.50;0.80;;;;;;;;;;4541196;28;20785;-60
2021/07/30 00:21:32;;;;;;;1.50;1.00;;;;;;;;;;4543529;28;20079;-59
2021/07/30 00:23:42;;;;;;;1.57;1.00;;;;;;;;;;4542512;28;20029;-59
2021/07/30 00:25:53;;;;;;;2.60;1.20;;;;;;;;;;4544535;28;21073;-60
2021/07/30 00:28:04;;;;;;;2.13;1.00;;;;;;;;;;4540526;28;20055;-60
2021/07/30 00:30:14;;;;;;;1.40;0.85;;;;;;;;;;4526001;28;20083;-60
2021/07/30 00:32:25;;;;;;;1.37;0.80;;;;;;;;;;4542600;28;20033;-60
2021/07/30 00:34:35;;;;;;;1.77;0.93;;;;;;;;;;4545290;28;20106;-60
2021/07/30 00:36:45;;;;;;;1.53;0.80;;;;;;;;;;4546851;28;20040;-60
2021/07/30 00:38:57;;;;;;;2.40;1.00;;;;;;;;;;4544824;28;20025;-60
2021/07/30 00:41:08;;;;;;;1.73;0.98;;;;;;;;;;4545735;28;20576;-61
2021/07/30 00:43:18;;;;;;;2.77;0.90;;;;;;;;;;4545638;28;20041;-60
2021/07/30 00:45:29;;;;;;;2.28;0.90;;;;;;;;;;4543694;28;20123;-60
2021/07/30 00:47:39;;;;;;;1.80;1.00;;;;;;;;;;4543502;28;20574;-60
2021/07/30 00:49:50;;;;;;;2.00;1.07;;;;;;;;;;4543441;28;20123;-60
2021/07/30 00:52:00;;;;;;;1.03;0.80;;;;;;;;;;4544892;28;23508;-59
2021/07/30 00:54:12;;;;;;;1.13;0.90;;;;;;;;;;4543281;28;20494;-60
2021/07/30 00:56:22;;;;;;;;;;;;;;;;;;4544300;28;20032;-60
2021/07/30 00:58:33;;;;;;;1.70;0.90;;;;;;;;;;4542831;28;20433;-60
2021/07/30 01:00:44;;;;;;;1.93;0.83;;;;;;;;;;4545114;28;20044;-60
2021/07/30 01:02:54;;;;;;;1.70;0.90;;;;;;;;;;4543335;28;20461;-60
2021/07/30 01:05:06;;;;;;;1.77;0.83;;;;;;;;;;4528911;28;20037;-60
2021/07/30 01:07:16;;;;;;;1.23;0.80;;;;;;;;;;4529133;28;20053;-60
2021/07/30 01:09:27;;;;;;;1.10;0.80;;;;;;;;;;4546783;28;20340;-60
2021/07/30 01:11:37;;;;;;;3.00;1.00;;;;;;;;;;4546534;28;20045;-60
2021/07/30 01:13:48;;;;;;;1.00;0.73;;;;;;;;;;4545799;28;20040;-60
2021/07/30 01:15:58;;;;;;;1.83;0.80;;;;;;;;;;4544924;28;20087;-60
2021/07/30 01:18:09;;;;;;;2.27;1.00;;;;;;;;;;4546050;28;20032;-60
2021/07/30 01:20:23;;;;;;;1.73;1.00;;;;;;;;;;4545661;28;20043;-60
2021/07/30 01:23:00;;;;;;;1.98;0.90;;;;;;;;;;4545581;28;20580;-60
2021/07/30 01:25:10;;;;;;;1.30;0.82;;;;;;;;;;4542266;28;20186;-60
2021/07/30 01:27:21;;;;;;;1.70;1.10;;;;;;;;;;4530569;28;20135;-60
2021/07/30 01:29:31;;;;;;;1.37;0.93;;;;;;;;;;4545577;28;20056;-60
2021/07/30 01:31:42;;;;;;;2.20;1.07;;;;;;;;;;4542716;28;20028;-60
2021/07/30 01:33:52;;;;;;;1.57;0.90;;;;;;;;;;4543162;28;20067;-60
2021/07/30 01:36:03;;;;;;;1.73;0.90;;;;;;;;;;4543324;28;20033;-60
2021/07/30 01:38:14;;;;;;;1.50;0.98;;;;;;;;;;4543837;28;20037;-60
2021/07/30 01:40:24;;;;;;;1.40;1.00;;;;;;;;;;4543914;28;20041;-60
2021/07/30 01:42:35;;;;;;;1.73;0.90;;;;;;;;;;4545044;28;20106;-60
2021/07/30 01:44:45;;;;;;;1.52;0.90;;;;;;;;;;4543115;28;20040;-60
2021/07/30 01:46:56;;;;;;;2.57;1.00;;;;;;;;;;4540570;28;20922;-60
2021/07/30 01:49:06;;;;;;;0.87;0.80;;;;;;;;;;4544635;28;20125;-60
2021/07/30 01:51:17;;;;;;;1.27;1.00;;;;;;;;;;4544379;28;20029;-60
2021/07/30 01:53:27;;;;;;;2.67;1.00;;;;;;;;;;4544073;28;20041;-60
2021/07/30 01:55:38;;;;;;;2.10;1.07;;;;;;;;;;4527523;28;20049;-60
2021/07/30 01:57:48;;;;;;;2.13;1.10;;;;;;;;;;4546486;28;20044;-60
2021/07/30 01:59:59;;;;;;;1.73;1.00;;;;;;;;;;4545724;28;20119;-60
2021/07/30 02:02:09;;;;;;;2.20;1.17;;;;;;;;;;4543530;28;20036;-60
2021/07/30 02:04:20;;;;;;;2.13;0.80;;;;;;;;;;4543500;28;20072;-60
2021/07/30 02:06:30;;;;;;;1.00;0.90;;;;;;;;;;4543006;28;20040;-60
2021/07/30 02:08:43;;;;;;;2.10;0.90;;;;;;;;;;4544060;28;20468;-60
2021/07/30 02:10:53;;;;;;;2.70;1.13;;;;;;;;;;4541070;28;20347;-60
2021/07/30 02:15:33;;;;;;;2.13;0.90;;;;;;;;;;4543492;28;20040;-60
2021/07/30 02:17:43;;;;;;;1.53;1.00;;;;;;;;;;4543609;28;20044;-60
2021/07/30 02:19:53;;;;;;;2.50;1.10;;;;;;;;;;4545380;28;21073;-60
2021/07/30 02:22:04;;;;;;;2.17;1.20;;;;;;;;;;4543801;28;20058;-61
2021/07/30 02:24:14;;;;;;;1.67;1.13;;;;;;;;;;4543343;28;20437;-61
2021/07/30 02:26:25;;;;;;;1.80;1.10;;;;;;;;;;4542818;28;20040;-61
2021/07/30 02:28:35;;;;;;;1.40;0.97;;;;;;;;;;4543003;28;20561;-61
2021/07/30 02:30:46;;;;;;;2.27;1.20;;;;;;;;;;4543275;28;20045;-61
2021/07/30 02:32:56;;;;;;;0.93;0.80;;;;;;;;;;4541831;28;20056;-61
2021/07/30 02:35:07;;;;;;;1.77;0.93;;;;;;;;;;4544277;28;20119;-61
2021/07/30 02:37:17;;;;;;;1.17;0.90;;;;;;;;;;4529678;28;20025;-60
2021/07/30 02:39:28;;;;;;;2.33;1.00;;;;;;;;;;4543284;28;20575;-60
2021/07/30 02:41:38;;;;;;;1.77;1.07;;;;;;;;;;4546145;28;20040;-61
2021/07/30 02:43:48;;;;;;;2.33;0.83;;;;;;;;;;4544242;28;20033;-61
2021/07/30 02:45:59;;;;;;;1.60;0.97;;;;;;;;;;4542706;28;20030;-61
2021/07/30 02:48:09;;;;;;;2.90;1.30;;;;;;;;;;4544943;28;28660;-62
2021/07/30 02:50:20;;;;;;;3.50;1.37;;;;;;;;;;4543371;28;20033;-61
2021/07/30 02:52:30;;;;;;;2.70;1.10;;;;;;;;;;4542266;28;20095;-61
2021/07/30 02:54:41;;;;;;;2.33;1.00;;;;;;;;;;4530877;28;20029;-61
2021/07/30 02:56:51;;;;;;;1.87;1.10;;;;;;;;;;4531137;28;20048;-61
2021/07/30 02:59:02;;;;;;;1.67;1.13;;;;;;;;;;4544954;28;20072;-61
2021/07/30 03:01:12;;;;;;;1.73;1.10;;;;;;;;;;4541463;28;20685;-61
2021/07/30 03:03:23;;;;;;;2.30;1.07;;;;;;;;;;4543427;28;20025;-61
2021/07/30 03:05:33;;;;;;;1.77;1.13;;;;;;;;;;4543101;28;20545;-61
2021/07/30 03:07:43;;;;;;;2.27;1.20;;;;;;;;;;4545411;28;20040;-61
2021/07/30 03:09:54;;;;;;;2.97;1.40;;;;;;;;;;4543347;28;20040;-61
2021/07/30 03:12:05;;;;;;;2.47;1.13;;;;;;;;;;4542155;28;20091;-61
2021/07/30 03:14:15;;;;;;;1.65;1.00;;;;;;;;;;4542681;28;20045;-60
2021/07/30 03:16:26;;;;;;;1.80;1.20;;;;;;;;;;4544289;28;20115;-61
2021/07/30 03:18:37;;;;;;;2.43;1.20;;;;;;;;;;4542933;28;20136;-61
2021/07/30 03:20:47;;;;;;;1.73;1.20;;;;;;;;;;4542640;28;20098;-61
2021/07/30 03:22:58;;;;;;;1.73;1.00;;;;;;;;;;4540976;28;20168;-61
2021/07/30 03:25:08;;;;;;;1.63;1.20;;;;;;;;;;4542925;28;20296;-60
2021/07/30 03:27:19;;;;;;;1.80;1.10;;;;;;;;;;4542688;28;20041;-61
2021/07/30 03:29:30;;;;;;;2.23;1.13;;;;;;;;;;4542361;28;20391;-61
2021/07/30 03:31:40;;;;;;;3.08;1.30;;;;;;;;;;4542250;28;20045;-62
2021/07/30 03:33:52;;;;;;;2.90;1.20;;;;;;;;;;4543769;28;20040;-61
2021/07/30 03:36:03;;;;;;;1.73;1.08;;;;;;;;;;4529742;28;20124;-61
2021/07/30 03:38:13;;;;;;;2.25;1.10;;;;;;;;;;4544583;28;20580;-61
2021/07/30 03:40:24;;;;;;;2.10;1.10;;;;;;;;;;4543207;28;20082;-61
2021/07/30 03:42:34;;;;;;;2.00;1.20;;;;;;;;;;4543153;28;20036;-61
2021/07/30 03:44:45;;;;;;;1.87;1.33;;;;;;;;;;4542406;28;20314;-61
2021/07/30 03:46:55;;;;;;;4.30;1.33;;;;;;;;;;4542549;28;20115;-61
2021/07/30 03:49:06;;;;;;;2.43;1.20;;;;;;;;;;4543079;28;20024;-61
2021/07/30 03:51:16;;;;;;;2.57;1.10;;;;;;;;;;4541427;28;20895;-61
2021/07/30 03:53:27;;;;;;;2.43;1.13;;;;;;;;;;4543090;28;20113;-61
2021/07/30 03:55:37;;;;;;;3.53;1.40;;;;;;;;;;4528267;28;20148;-61
2021/07/30 03:57:48;;;;;;;1.73;1.00;;;;;;;;;;4542363;28;20041;-61
2021/07/30 03:59:58;;;;;;;2.53;1.30;;;;;;;;;;4540203;28;20043;-61
2021/07/30 04:02:08;;;;;;;1.47;1.07;;;;;;;;;;4541959;28;20024;-61
2021/07/30 04:04:19;;;;;;;4.93;1.50;;;;;;;;;;4542011;28;20038;-61
2021/07/30 04:06:29;;;;;;;1.97;1.40;;;;;;;;;;4540785;28;20056;-60
2021/07/30 04:08:40;;;;;;;2.03;1.20;;;;;;;;;;4543143;28;20037;-61
2021/07/30 04:10:50;;;;;;;2.70;1.33;;;;;;;;;;4545237;28;20040;-61
2021/07/30 04:13:01;;;;;;;1.73;1.20;;;;;;;;;;4546534;28;20071;-61
2021/07/30 04:15:11;;;;;;;3.67;1.33;;;;;;;;;;4544054;28;20029;-61
2021/07/30 04:17:21;;;;;;;2.50;1.20;;;;;;;;;;4517515;28;20995;-61
2021/07/30 04:19:32;;;;;;;3.73;1.40;;;;;;;;;;4544912;28;20033;-61
2021/07/30 04:21:42;;;;;;;2.13;1.10;;;;;;;;;;4544052;28;20036;-61
2021/07/30 04:23:53;;;;;;;2.50;1.20;;;;;;;;;;4542338;28;20043;-61
2021/07/30 04:26:03;;;;;;;2.00;1.20;;;;;;;;;;4541521;28;20432;-61
2021/07/30 04:28:14;;;;;;;3.10;1.20;;;;;;;;;;4544618;28;20056;-61
2021/07/30 04:30:24;;;;;;;2.00;1.30;;;;;;;;;;4543364;28;20227;-61
2021/07/30 04:32:35;;;;;;;1.73;1.13;;;;;;;;;;4543563;28;20154;-61
2021/07/30 04:34:46;;;;;;;2.42;1.40;;;;;;;;;;4543487;28;20029;-61
2021/07/30 04:36:56;;;;;;;2.50;1.30;;;;;;;;;;4546315;28;20394;-61
2021/07/30 04:39:07;;;;;;;3.10;1.30;;;;;;;;;;4544359;28;20036;-61
2021/07/30 04:41:17;;;;;;;1.27;0.93;;;;;;;;;;4546623;28;21847;-61
2021/07/30 04:43:28;;;;;;;3.07;1.43;;;;;;;;;;4546397;28;20537;-61
2021/07/30 04:45:38;;;;;;;1.87;1.17;;;;;;;;;;4546238;28;21226;-61
2021/07/30 04:47:48;;;;;;;2.63;1.37;;;;;;;;;;4545450;28;20045;-61
2021/07/30 04:49:59;;;;;;;2.30;1.30;;;;;;;;;;4544446;28;20557;-61
2021/07/30 04:52:09;;;;;;;3.37;1.23;;;;;;;;;;4547149;28;20033;-61
2021/07/30 04:54:20;;;;;;;1.40;1.13;;;;;;;;;;4545340;28;20071;-61
2021/07/30 04:56:30;;;;;;;2.07;1.17;;;;;;;;;;4544885;28;20525;-61
2021/07/30 04:58:40;;;;;;;2.47;1.30;;;;;;;;;;4545358;28;20159;-61
2021/07/30 05:00:51;;;;;;;2.90;1.33;;;;;;;;;;4544728;28;20040;-61
2021/07/30 05:03:02;;;;;;;1.77;1.00;;;;;;;;;;4545955;28;20487;-61
2021/07/30 05:05:13;;;;;;;2.47;1.10;;;;;;;;;;4546231;28;20760;-61
2021/07/30 05:07:23;;;;;;;1.53;1.07;;;;;;;;;;4545032;28;20049;-61
2021/07/30 05:09:34;;;;;;;1.20;1.10;;;;;;;;;;4529074;28;20049;-61
2021/07/30 05:11:44;;;;;;;3.83;1.50;;;;;;;;;;4543088;28;20035;-60
2021/07/30 05:13:55;;;;;;;2.67;1.43;;;;;;;;;;4545680;28;20079;-61
2021/07/30 05:16:09;;;;;;;2.77;1.50;;;;;;;;;;4542151;28;20103;-61
2021/07/30 05:18:20;;;;;;;1.75;1.20;;;;;;;;;;4543268;28;20126;-61
2021/07/30 05:20:30;;;;;;;2.13;1.10;;;;;;;;;;4543678;28;20095;-61
2021/07/30 05:22:41;;;;;;;2.10;1.30;;;;;;;;;;4542970;28;20040;-61
2021/07/30 05:24:51;;;;;;;1.60;1.10;;;;;;;;;;4542284;28;20827;-61
2021/07/30 05:27:06;;;;;;;4.03;1.30;;;;;;;;;;4530905;28;20816;-61
2021/07/30 05:29:17;;;;;;;1.83;1.00;;;;;;;;;;4544498;28;20662;-60
2021/07/30 05:31:28;;;;;;;2.37;1.33;;;;;;;;;;4545161;28;20357;-61
2021/07/30 05:33:39;;;;;;;;;;;;;;;;;;4545332;28;20029;-61
2021/07/30 05:35:49;;;;;;;3.63;1.10;;;;;;;;;;4545741;28;19916;-61
2021/07/30 05:37:59;;;;;;;1.67;1.03;;;;;;;;;;4543125;28;20199;-61
2021/07/30 05:40:10;;;;;;;1.97;1.27;;;;;;;;;;4545185;28;20060;-61
2021/07/30 05:42:21;;;;;;;1.93;1.10;;;;;;;;;;4546405;28;20083;-61
2021/07/30 05:44:31;;;;;;;2.00;1.20;;;;;;;;;;4544307;28;20313;-61
2021/07/30 05:46:42;;;;;;;3.40;1.23;;;;;;;;;;4545230;28;20048;-61
2021/07/30 05:48:56;;;;;;;1.70;0.93;;;;;;;;;;4543881;28;20406;-61
2021/07/30 05:51:09;;;;;;;2.22;1.40;;;;;;;;;;4543013;28;20036;-60
2021/07/30 05:53:19;;;;;;;2.05;1.13;;;;;;;;;;4543727;28;20037;-60
2021/07/30 05:55:30;;;;;;;1.90;1.20;;;;;;;;;;4541911;28;21049;-61
2021/07/30 05:57:41;;;;;;;3.90;1.73;;;;;;;;;;4545568;28;20036;-60
2021/07/30 05:59:51;;;;;;;1.95;1.20;;;;;;;;;;4543987;28;20029;-63
2021/07/30 06:02:02;;;;;;;2.47;1.20;;;;;;;;;;4545054;28;20033;-61
2021/07/30 06:04:12;;;;;;;2.90;1.40;;;;;;;;;;4543611;28;20504;-61
2021/07/30 06:06:23;;;;;;;1.93;1.27;;;;;;;;;;4544072;28;20473;-61
2021/07/30 06:08:33;;;;;;;2.57;1.30;;;;;;;;;;4544405;28;20162;-61
2021/07/30 06:10:44;;;;;;;1.47;1.10;;;;;;;;;;4544320;28;20082;-60
2021/07/30 06:12:54;;;;;;;3.00;1.50;;;;;;;;;;4545263;28;20025;-61
2021/07/30 06:15:06;;;;;;;1.47;1.20;;;;;;;;;;4543639;28;20045;-61
2021/07/30 06:17:17;;;;;;;3.20;1.42;;;;;;;;;;4543563;28;20075;-60
2021/07/30 06:19:27;;;;;;;2.33;1.10;;;;;;;;;;4546334;28;20942;-61
2021/07/30 06:21:38;;;;;;;1.90;1.17;;;;;;;;;;4545341;28;20029;-60
2021/07/30 06:23:48;;;;;;;2.97;1.10;;;;;;;;;;4545395;28;20053;-61
2021/07/30 06:25:59;;;;;;;4.43;1.40;;;;;;;;;;4544090;28;20033;-60
2021/07/30 06:28:09;;;;;;;2.03;1.00;;;;;;;;;;4527215;28;20536;-60
2021/07/30 06:30:20;;;;;;;3.43;1.30;;;;;;;;;;4543062;28;20029;-60
2021/07/30 06:32:30;;;;;;;2.17;1.20;;;;;;;;;;4544315;28;20063;-60
2021/07/30 06:34:41;;;;;;;2.50;1.20;;;;;;;;;;4543211;28;20032;-60
2021/07/30 06:36:57;;;;;;;2.07;1.20;;;;;;;;;;4544841;28;20033;-60
2021/07/30 06:39:08;;;;;;;2.08;1.02;;;;;;;;;;4545005;28;20036;-60
2021/07/30 06:41:18;;;;;;;3.07;1.07;;;;;;;;;;4542742;28;20045;-60
2021/07/30 06:43:28;;;;;;;2.37;1.00;;;;;;;;;;4542448;28;20031;-61
2021/07/30 06:45:40;;;;;;;1.43;1.00;;;;;;;;;;4544565;28;20045;-61
2021/07/30 06:47:50;;;;;;;3.28;1.17;;;;;;;;;;4544656;28;20081;-62
2021/07/30 06:50:01;;;;;;;2.77;1.20;;;;;;;;;;4544317;28;20132;-61
2021/07/30 06:52:11;;;;;;;1.48;1.10;;;;;;;;;;4544430;28;20092;-61
2021/07/30 06:54:23;;;;;;;1.77;1.07;;;;;;;;;;4545220;28;20086;-60
2021/07/30 06:56:34;;;;;;;2.42;1.13;;;;;;;;;;4542970;28;20083;-61
2021/07/30 06:58:46;;;;;;;2.35;1.10;;;;;;;;;;4542212;28;21245;-58
2021/07/30 07:00:56;;;;;;;2.50;1.10;;;;;;;;;;4542409;28;20037;-58
2021/07/30 07:03:06;;;;;;;3.47;1.10;;;;;;;;;;4543075;28;20412;-58
2021/07/30 07:05:18;;;;;;;1.50;1.03;;;;;;;;;;4541522;28;20037;-58
2021/07/30 07:07:28;;;;;;;1.65;0.90;;;;;;;;;;4543679;28;20858;-58
2021/07/30 07:09:39;;;;;;;2.53;0.80;;;;;;;;;;4542849;28;20041;-58
2021/07/30 07:11:49;;;;;;;1.50;0.87;;;;;;;;;;4541558;28;20884;-58
2021/07/30 07:14:00;;;;;;;1.57;0.90;;;;;;;;;;4543546;28;20028;-58
2021/07/30 07:16:10;;;;;;;2.30;1.20;;;;;;;;;;4541817;28;20067;-59
2021/07/30 07:18:21;;;;;;;1.90;1.23;;;;;;;;;;4543265;28;20496;-60
2021/07/30 07:20:31;;;;;;;1.80;0.80;;;;;;;;;;4543208;28;20037;-60
2021/07/30 07:22:41;;;;;;;0.97;0.87;;;;;;;;;;4543551;28;20044;-59
2021/07/30 07:24:52;;;;;;;2.60;1.07;;;;;;;;;;4542545;28;20025;-59
2021/07/30 07:27:02;;;;;;;1.97;0.90;;;;;;;;;;4542334;28;20041;-59
2021/07/30 07:29:13;;;;;;;1.37;0.90;;;;;;;;;;4541470;28;20044;-59
2021/07/30 07:31:23;;;;;;;2.00;0.80;;;;;;;;;;4543104;28;20036;-59
2021/07/30 07:33:34;;;;;;;2.10;0.93;;;;;;;;;;4541193;28;20044;-60
2021/07/30 07:35:44;;;;;;;2.47;1.10;;;;;;;;;;4543221;28;20505;-58
2021/07/30 07:38:05;;;;;;;1.77;0.83;;;;;;;;;;4542127;28;20047;-60
2021/07/30 07:40:15;;;;;;;2.67;0.80;;;;;;;;;;4544409;28;20898;-60
2021/07/30 07:42:26;;;;;;;1.10;0.80;;;;;;;;;;4543930;28;20171;-59
2021/07/30 07:44:36;;;;;;;1.77;0.80;;;;;;;;;;4542090;28;20095;-59
2021/07/30 07:46:47;;;;;;;1.50;0.73;;;;;;;;;;4543004;28;20044;-60
2021/07/30 07:48:59;;;;;;;1.10;0.70;;;;;;;;;;4544106;28;20124;-60
2021/07/30 07:51:09;;;;;;;1.45;0.70;;;;;;;;;;4541318;28;20040;-59
2021/07/30 07:53:21;;;;;;;2.27;1.00;;;;;;;;;;4542211;28;20036;-59
2021/07/30 07:55:32;;;;;;;1.45;0.75;;;;;;;;;;4543824;28;20043;-59
2021/07/30 07:57:43;;;;;;;1.73;0.90;;;;;;;;;;4542353;28;20032;-59
2021/07/30 07:59:54;;;;;;;1.67;0.75;;;;;;;;;;4541765;28;20803;-60
2021/07/30 08:02:07;;;;;;;1.47;0.70;;;;;;;;;;4542870;28;20037;-59
2021/07/30 08:04:18;;;;;;;1.80;0.82;;;;;;;;;;4522169;28;20038;-59
2021/07/30 08:06:28;;;;;;;2.77;0.90;;;;;;;;;;4541471;28;20464;-60
2021/07/30 08:08:39;;;;;;;2.17;0.90;;;;;;;;;;4542470;28;20858;-60
2021/07/30 08:10:49;;;;;;;1.80;0.70;;;;;;;;;;4543663;28;20029;-61
2021/07/30 08:13:00;;;;;;;1.15;0.70;;;;;;;;;;4543317;28;20040;-59
2021/07/30 08:15:10;;;;;;;1.23;0.80;;;;;;;;;;4542940;28;20037;-59
2021/07/30 08:17:21;;;;;;;1.60;0.53;;;;;;;;;;4543290;28;20032;-59
2021/07/30 08:19:33;;;;;;;1.50;0.90;;;;;;;;;;4542116;28;20041;-59
2021/07/30 08:21:43;;;;;;;1.00;0.70;;;;;;;;;;4540226;28;20136;-59
2021/07/30 08:23:54;;;;;;;2.07;0.90;;;;;;;;;;4542705;28;20047;-59
2021/07/30 08:26:04;;;;;;;0.83;0.73;;;;;;;;;;4541553;28;20127;-59
2021/07/30 08:28:15;;;;;;;1.37;0.77;;;;;;;;;;4542294;28;20533;-59
2021/07/30 08:30:25;;;;;;;1.13;0.70;;;;;;;;;;4542943;28;20033;-59
2021/07/30 08:32:36;;;;;;;2.63;0.80;;;;;;;;;;4541999;28;20036;-59
2021/07/30 08:34:46;;;;;;;1.70;0.70;;;;;;;;;;4541476;28;20519;-59
2021/07/30 08:36:57;;;;;;;2.15;0.60;;;;;;;;;;4539980;28;20029;-58
2021/07/30 08:39:08;;;;;;;1.47;0.77;;;;;;;;;;4544244;28;20036;-59
2021/07/30 08:41:21;;;;;;;1.77;0.90;;;;;;;;;;4542742;28;20037;-59
2021/07/30 08:43:32;;;;;;;0.82;0.70;;;;;;;;;;4542696;28;20335;-58
2021/07/30 08:45:51;;;;;;;1.23;0.75;;;;;;;;;;4539941;28;20439;-58
2021/07/30 08:48:01;;;;;;;1.92;0.82;;;;;;;;;;4541471;28;20044;-59
2021/07/30 08:50:12;;;;;;;1.30;0.80;;;;;;;;;;4545189;28;20025;-60
2021/07/30 08:52:39;;;;;;;2.08;0.80;;;;;;;;;;4540871;28;20033;-60
2021/07/30 08:54:51;;;;;;;1.33;0.70;;;;;;;;;;4543387;28;20032;-60
2021/07/30 08:57:08;;;;;;;0.77;0.60;;;;;;;;;;4545767;28;20037;-59
2021/07/30 08:59:20;;;;;;;1.00;0.70;;;;;;;;;;4544919;28;20155;-59
2021/07/30 09:01:31;;;;;;;1.67;0.77;;;;;;;;;;4546110;28;20102;-59
2021/07/30 09:03:43;;;;;;;1.83;0.60;;;;;;;;;;4545319;28;20577;-60
2021/07/30 09:05:54;;;;;;;1.33;0.70;;;;;;;;;;4545280;28;20958;-60
2021/07/30 09:08:06;;;;;;;2.90;0.90;;;;;;;;;;4544695;28;20200;-60
2021/07/30 09:10:31;;;;;;;1.42;0.77;;;;;;;;;;4543461;28;20577;-60
2021/07/30 09:12:41;;;;;;;0.63;0.63;;;;;;;;;;4543825;28;20615;-59
2021/07/30 09:14:52;;;;;;;1.80;0.90;;;;;;;;;;4544795;28;20333;-59
2021/07/30 09:17:04;;;;;;;2.67;0.80;;;;;;;;;;4544998;28;20501;-59
2021/07/30 09:19:14;;;;;;;1.35;0.60;;;;;;;;;;4544354;28;20580;-59
2021/07/30 09:21:33;;;;;;;1.20;0.80;;;;;;;;;;4526950;28;20042;-59
2021/07/30 09:23:51;;;;;;;3.40;1.17;;;;;;;;;;4543790;28;20297;-59
2021/07/30 09:26:01;;;;;;;8.73;2.20;;;;;;;;;;4546200;28;20568;-60
2021/07/30 09:28:12;;;;;;;0.93;0.80;;;;;;;;;;4544700;28;20066;-59
2021/07/30 09:30:22;;;;;;;1.20;0.60;;;;;;;;;;4541248;28;20033;-59
2021/07/30 09:32:33;;;;;;;1.13;0.83;;;;;;;;;;4542516;28;20706;-59
2021/07/30 09:34:48;;;;;;;1.83;0.87;;;;;;;;;;4543815;28;20043;-60
2021/07/30 09:37:01;;;;;;;2.13;0.60;;;;;;;;;;4541025;28;20029;-59
2021/07/30 09:39:12;;;;;;;1.23;0.80;;;;;;;;;;4542816;28;20132;-60
2021/07/30 09:41:23;;;;;;;2.17;0.90;;;;;;;;;;4545792;28;20025;-59
2021/07/30 09:43:33;;;;;;;1.17;0.70;;;;;;;;;;4541890;28;20041;-60
2021/07/30 09:45:44;;;;;;;1.30;0.80;;;;;;;;;;4541527;28;20037;-60
2021/07/30 09:47:54;;;;;;;1.00;0.80;;;;;;;;;;4543743;28;20045;-59
2021/07/30 09:50:07;;;;;;;2.03;1.10;;;;;;;;;;4544122;28;20198;-59
2021/07/30 09:52:25;;;;;;;2.15;0.90;;;;;;;;;;4543891;28;20033;-60
2021/07/30 09:54:42;;;;;;;1.55;0.80;;;;;;;;;;4544495;28;20040;-59
2021/07/30 09:56:53;;;;;;;1.60;0.90;;;;;;;;;;4544903;28;20041;-60
2021/07/30 09:59:03;;;;;;;2.17;0.80;;;;;;;;;;4541633;28;20032;-60
2021/07/30 10:01:17;;;;;;;1.17;0.70;;;;;;;;;;4542903;28;20345;-60
2021/07/30 10:03:28;;;;;;;1.20;0.70;;;;;;;;;;4545037;28;20037;-61
2021/07/30 10:05:38;;;;;;;2.17;0.97;;;;;;;;;;4546554;28;20063;-60
2021/07/30 10:07:51;;;;;;;1.47;0.90;;;;;;;;;;4543583;28;20036;-61
2021/07/30 10:12:14;;;;;;;1.10;0.90;;;;;;;;;;4530619;28;20135;-65
2021/07/30 10:14:28;;;;;;;1.48;0.90;;;;;;;;;;4544817;28;20115;-64
2021/07/30 10:16:49;;;;;;;0.88;0.80;;;;;;;;;;4542355;28;20025;-63
2021/07/30 10:19:00;;;;;;;1.00;0.90;;;;;;;;;;4542661;28;20604;-63
2021/07/30 10:21:13;;;;;;;2.67;1.07;;;;;;;;;;4541094;28;20033;-64
2021/07/30 10:23:24;;;;;;;1.00;0.60;;;;;;;;;;4542231;28;20029;-65
2021/07/30 10:25:48;;;;;;;1.85;1.00;;;;;;;;;;4541813;28;20024;-63
2021/07/30 10:28:09;;;;;;;1.25;0.68;;;;;;;;;;4543944;28;20049;-62
2021/07/30 10:30:19;;;;;;;2.38;1.10;;;;;;;;;;4531090;28;20040;-63
2021/07/30 10:32:59;;;;;;;1.03;0.87;;;;;;;;;;4542671;28;20047;-63
2021/07/30 10:35:11;;;;;;;2.40;0.93;;;;;;;;;;4543842;28;20039;-63
2021/07/30 10:37:41;;;;;;;1.67;1.10;;;;;;;;;;4542994;28;20880;-63
2021/07/30 10:40:21;;;;;;;2.00;0.80;;;;;;;;;;4545480;28;20083;-63
2021/07/30 10:42:32;;;;;;;1.35;0.98;;;;;;;;;;4544217;28;20037;-63
2021/07/30 10:45:17;;;;;;;2.70;0.98;;;;;;;;;;4541747;28;20039;-62
2021/07/30 10:47:28;;;;;;;1.80;1.10;;;;;;;;;;4540586;28;20053;-62
2021/07/30 10:49:39;;;;;;;0.93;0.80;;;;;;;;;;4541417;28;20532;-63
2021/07/30 10:52:26;;;;;;;1.65;0.80;;;;;;;;;;4544558;28;20576;-63
2021/07/30 10:54:49;;;;;;;1.25;0.85;;;;;;;;;;4542955;28;20033;-63
2021/07/30 10:57:00;;;;;;;1.85;0.82;;;;;;;;;;4525287;28;20060;-62
2021/07/30 10:59:10;;;;;;;1.10;1.00;;;;;;;;;;4543375;28;20047;-63
2021/07/30 11:01:28;;;;;;;1.27;0.90;;;;;;;;;;4543133;28;20037;-63
2021/07/30 11:06:09;;;;;;;1.27;0.80;;;;;;;;;;4542927;28;20079;-63
2021/07/30 11:08:19;;;;;;;1.00;0.90;;;;;;;;;;4541484;28;20040;-64
2021/07/30 11:10:30;;;;;;;0.80;0.77;;;;;;;;;;4543261;28;20036;-64
2021/07/30 11:12:41;;;;;;;2.43;1.00;;;;;;;;;;4546050;28;20041;-64
2021/07/30 11:14:52;;;;;;;2.42;1.13;;;;;;;;;;4529751;28;21583;-64
2021/07/30 11:17:13;;;;;;;1.05;0.80;;;;;;;;;;4542486;28;20543;-64
2021/07/30 11:19:27;;;;;;;1.70;1.00;;;;;;;;;;4538152;28;20056;-64
2021/07/30 11:21:38;;;;;;;1.58;0.95;;;;;;;;;;4525130;28;20179;-64
2021/07/30 11:23:49;;;;;;;1.15;0.88;;;;;;;;;;4543861;28;20029;-64
2021/07/30 11:26:03;;;;;;;0.87;0.80;;;;;;;;;;4542109;28;20044;-64
2021/07/30 11:28:14;;;;;;;1.50;1.00;;;;;;;;;;4542296;28;20041;-64
2021/07/30 11:30:29;;;;;;;1.08;0.95;;;;;;;;;;4540281;28;20036;-64
2021/07/30 11:32:39;;;;;;;1.90;1.00;;;;;;;;;;4543346;28;20029;-64
2021/07/30 11:34:51;;;;;;;1.27;0.90;;;;;;;;;;4527920;28;20033;-64
2021/07/30 11:37:09;;;;;;;;;;;;;;;;;;4545119;28;20195;-64
2021/07/30 11:39:20;;;;;;;0.93;0.70;;;;;;;;;;4542017;28;19931;-64
2021/07/30 11:41:30;;;;;;;1.47;1.10;;;;;;;;;;4542877;28;20037;-64
2021/07/30 11:43:58;;;;;;;1.20;0.90;;;;;;;;;;4543215;28;20039;-64
2021/07/30 11:46:12;;;;;;;2.58;1.10;;;;;;;;;;4540720;28;20044;-64
2021/07/30 11:48:22;;;;;;;1.50;0.80;;;;;;;;;;4541109;28;20048;-64
2021/07/30 11:50:33;;;;;;;1.83;1.10;;;;;;;;;;4542603;28;21022;-64
2021/07/30 11:52:43;;;;;;;1.70;1.10;;;;;;;;;;4540611;28;20032;-64
2021/07/30 11:54:54;;;;;;;2.13;0.90;;;;;;;;;;4542074;28;20441;-64
2021/07/30 11:57:06;;;;;;;7.20;2.83;;;;;;;;;;4542074;28;20021;-64
2021/07/30 11:59:16;;;;;;;10.00;3.05;;;;;;;;;;4541868;28;20110;-65
2021/07/30 12:01:30;;;;;;;10.97;3.17;;;;;;;;;;4542422;28;20108;-65
2021/07/30 12:03:41;;;;;;;9.57;3.30;;;;;;;;;;4541740;28;20041;-64
2021/07/30 12:05:52;;;;;;;11.33;2.83;;;;;;;;;;4543309;28;20036;-64
2021/07/30 12:08:04;;;;;;;1.33;1.00;;;;;;;;;;4543821;28;20050;-64
2021/07/30 12:10:18;;;;;;;1.10;0.90;;;;;;;;;;4543629;28;20138;-64
2021/07/30 12:12:32;;;;;;;1.33;0.90;;;;;;;;;;4525470;28;20146;-64
2021/07/30 12:14:47;;;;;;;1.45;1.13;;;;;;;;;;4543457;28;21262;-64
2021/07/30 12:16:57;;;;;;;1.45;0.98;;;;;;;;;;4542560;28;20032;-64
2021/07/30 12:19:08;;;;;;;3.27;1.10;;;;;;;;;;4543158;28;20104;-64
2021/07/30 12:21:19;;;;;;;1.08;0.85;;;;;;;;;;4524511;28;20505;-65
2021/07/30 12:23:32;;;;;;;2.13;1.00;;;;;;;;;;4541733;28;20041;-64
2021/07/30 12:25:52;;;;;;;1.52;0.90;;;;;;;;;;4542613;28;20045;-64
2021/07/30 12:28:09;;;;;;;1.70;0.80;;;;;;;;;;4542221;28;20041;-64
2021/07/30 12:30:27;;;;;;;1.85;1.10;;;;;;;;;;4544140;28;20107;-64
2021/07/30 12:32:39;;;;;;;6.40;2.10;;;;;;;;;;4544441;28;20064;-64
2021/07/30 12:34:53;;;;;;;8.95;2.70;;;;;;;;;;4524476;28;20587;-64
2021/07/30 12:37:10;;;;;;;6.78;2.25;;;;;;;;;;4544805;28;20041;-64
2021/07/30 12:39:22;;;;;;;1.40;0.80;;;;;;;;;;4543297;28;20029;-64
2021/07/30 12:41:36;;;;;;;1.45;1.00;;;;;;;;;;4544576;28;20033;-64
2021/07/30 12:43:46;;;;;;;1.92;1.10;;;;;;;;;;4545244;28;20564;-64
2021/07/30 12:45:57;;;;;;;1.15;1.00;;;;;;;;;;4541504;28;20036;-63
2021/07/30 12:48:07;;;;;;;1.47;1.07;;;;;;;;;;4544181;28;20052;-64
2021/07/30 12:50:38;;;;;;;3.87;1.43;;;;;;;;;;4545069;28;20110;-63
2021/07/30 12:53:07;;;;;;;1.27;0.75;;;;;;;;;;4546013;28;21246;-64
2021/07/30 12:55:17;;;;;;;1.30;1.10;;;;;;;;;;4545857;28;20717;-64
2021/07/30 12:57:28;;;;;;;1.47;0.70;;;;;;;;;;4546508;28;20033;-64
2021/07/30 12:59:52;;;;;;;6.17;1.93;;;;;;;;;;4542581;28;20099;-64
2021/07/30 13:02:03;;;;;;;6.75;2.13;;;;;;;;;;4542583;28;20127;-63
2021/07/30 13:04:13;;;;;;;6.27;2.10;;;;;;;;;;4543503;28;20489;-64
2021/07/30 13:06:24;;;;;;;7.67;2.50;;;;;;;;;;4543199;28;20230;-62
2021/07/30 13:08:36;;;;;;;5.57;2.17;;;;;;;;;;4542308;28;20040;-63
2021/07/30 13:10:47;;;;;;;5.00;1.83;;;;;;;;;;4543758;28;20034;-66
2021/07/30 13:12:57;;;;;;;6.43;2.10;;;;;;;;;;4546849;28;20494;-64
2021/07/30 13:15:10;;;;;;;4.77;1.87;;;;;;;;;;4544100;28;20750;-63
2021/07/30 13:17:20;;;;;;;5.25;1.88;;;;;;;;;;4542850;28;20028;-64
2021/07/30 13:19:31;;;;;;;6.17;2.10;;;;;;;;;;4545897;28;20025;-64